sensor_id;sensor_type;location;lat;lon;timestamp;temperature;humidity
23738;DHT22;12049;51.068;3.688;2022-10-16T00:02:01;15.50;99.90
23738;DHT22;12049;51.068;3.688;2022-10-16T00:04:27;15.50;99.90
23738;DHT22;12049;51.068;3.688;2022-10-16T00:06:52;15.60;99.90
23738;DHT22;12049;51.068;3.688;2022-10-16T00:09:18;15.60;99.90
23738;DHT22;12049;51.068;3.688;2022-10-16T00:11:43;15.60;99.90
23738;DHT22;12049;51.068;3.688;2022-10-16T00:14:10;15.60;99.90
23738;DHT22;12049;51.068;3.688;2022-10-16T00:16:36;15.50;99.90
23738;DHT22;12049;51.068;3.688;2022-10-16T00:19:02;15.40;99.90
23738;DHT22;12049;51.068;3.688;2022-10-16T00:21:28;15.40;99.90
23738;DHT22;12049;51.068;3.688;2022-10-16T00:23:59;15.30;99.90
23738;DHT22;12049;51.068;3.688;2022-10-16T00:26:25;15.20;99.90
23738;DHT22;12049;51.068;3.688;2022-10-16T00:28:51;15.20;99.90
23738;DHT22;12049;51.068;3.688;2022-10-16T00:31:17;15.20;99.90
23738;DHT22;12049;51.068;3.688;2022-10-16T00:33:43;15.20;99.90
23738;DHT22;12049;51.068;3.688;2022-10-16T00:36:12;15.20;99.90
23738;DHT22;12049;51.068;3.688;2022-10-16T00:38:38;15.20;99.90
23738;DHT22;12049;51.068;3.688;2022-10-16T00:41:04;15.20;99.90
23738;DHT22;12049;51.068;3.688;2022-10-16T00:43:50;15.20;99.90
23738;DHT22;12049;51.068;3.688;2022-10-16T00:46:26;15.20;99.90
23738;DHT22;12049;51.068;3.688;2022-10-16T00:49:03;15.10;99.90
23738;DHT22;12049;51.068;3.688;2022-10-16T00:51:31;15.10;99.90
23738;DHT22;12049;51.068;3.688;2022-10-16T00:53:57;15.20;99.90
23738;DHT22;12049;51.068;3.688;2022-10-16T00:56:23;15.00;99.90
23738;DHT22;12049;51.068;3.688;2022-10-16T00:58:49;15.10;99.90
23738;DHT22;12049;51.068;3.688;2022-10-16T01:01:14;15.10;99.90
23738;DHT22;12049;51.068;3.688;2022-10-16T01:03:40;15.20;99.90
23738;DHT22;12049;51.068;3.688;2022-10-16T01:08:48;15.10;99.90
23738;DHT22;12049;51.068;3.688;2022-10-16T01:13:40;15.10;99.90
23738;DHT22;12049;51.068;3.688;2022-10-16T01:16:29;15.10;99.90
23738;DHT22;12049;51.068;3.688;2022-10-16T01:19:16;15.00;99.90
23738;DHT22;12049;51.068;3.688;2022-10-16T01:21:40;15.00;99.90
23738;DHT22;12049;51.068;3.688;2022-10-16T01:29:37;14.90;99.90
23738;DHT22;12049;51.068;3.688;2022-10-16T01:32:10;15.00;99.90
23738;DHT22;12049;51.068;3.688;2022-10-16T01:37:32;15.00;99.90
23738;DHT22;12049;51.068;3.688;2022-10-16T01:39:58;15.00;99.90
23738;DHT22;12049;51.068;3.688;2022-10-16T01:42:27;14.90;99.90
23738;DHT22;12049;51.068;3.688;2022-10-16T01:44:54;14.90;99.90
23738;DHT22;12049;51.068;3.688;2022-10-16T01:47:21;14.80;99.90
23738;DHT22;12049;51.068;3.688;2022-10-16T01:49:48;14.90;99.90
23738;DHT22;12049;51.068;3.688;2022-10-16T01:52:17;14.90;99.90
23738;DHT22;12049;51.068;3.688;2022-10-16T01:54:45;14.80;99.90
23738;DHT22;12049;51.068;3.688;2022-10-16T01:57:12;14.90;99.90
23738;DHT22;12049;51.068;3.688;2022-10-16T01:59:40;14.90;99.90
23738;DHT22;12049;51.068;3.688;2022-10-16T02:02:08;14.90;99.90
23738;DHT22;12049;51.068;3.688;2022-10-16T02:04:36;14.80;99.90
23738;DHT22;12049;51.068;3.688;2022-10-16T02:07:02;14.90;99.90
23738;DHT22;12049;51.068;3.688;2022-10-16T02:09:29;14.80;99.90
23738;DHT22;12049;51.068;3.688;2022-10-16T02:11:55;14.80;99.90
23738;DHT22;12049;51.068;3.688;2022-10-16T02:14:22;14.90;99.90
23738;DHT22;12049;51.068;3.688;2022-10-16T02:16:50;14.90;99.90
23738;DHT22;12049;51.068;3.688;2022-10-16T02:19:16;14.90;99.90
23738;DHT22;12049;51.068;3.688;2022-10-16T02:21:44;14.90;99.90
23738;DHT22;12049;51.068;3.688;2022-10-16T02:27:10;14.90;99.90
23738;DHT22;12049;51.068;3.688;2022-10-16T02:29:40;14.90;99.90
23738;DHT22;12049;51.068;3.688;2022-10-16T02:32:10;14.80;99.90
23738;DHT22;12049;51.068;3.688;2022-10-16T02:34:37;14.80;99.90
23738;DHT22;12049;51.068;3.688;2022-10-16T02:37:04;14.80;99.90
23738;DHT22;12049;51.068;3.688;2022-10-16T02:39:30;14.90;99.90
23738;DHT22;12049;51.068;3.688;2022-10-16T02:41:56;14.90;99.90
23738;DHT22;12049;51.068;3.688;2022-10-16T02:44:21;14.90;99.90
23738;DHT22;12049;51.068;3.688;2022-10-16T02:46:47;14.90;99.90
23738;DHT22;12049;51.068;3.688;2022-10-16T02:49:12;14.90;99.90
23738;DHT22;12049;51.068;3.688;2022-10-16T02:51:38;14.80;99.90
23738;DHT22;12049;51.068;3.688;2022-10-16T02:54:03;14.80;99.90
23738;DHT22;12049;51.068;3.688;2022-10-16T02:56:29;14.80;99.90
23738;DHT22;12049;51.068;3.688;2022-10-16T02:58:55;14.90;99.90
23738;DHT22;12049;51.068;3.688;2022-10-16T03:01:21;14.80;99.90
23738;DHT22;12049;51.068;3.688;2022-10-16T03:03:46;14.80;99.90
23738;DHT22;12049;51.068;3.688;2022-10-16T03:08:46;14.80;99.90
23738;DHT22;12049;51.068;3.688;2022-10-16T03:11:12;14.80;99.90
23738;DHT22;12049;51.068;3.688;2022-10-16T03:13:37;14.80;99.90
23738;DHT22;12049;51.068;3.688;2022-10-16T03:16:03;14.80;99.90
23738;DHT22;12049;51.068;3.688;2022-10-16T03:18:28;14.80;99.90
23738;DHT22;12049;51.068;3.688;2022-10-16T03:20:54;14.80;99.90
23738;DHT22;12049;51.068;3.688;2022-10-16T03:23:19;14.80;99.90
23738;DHT22;12049;51.068;3.688;2022-10-16T03:25:45;14.70;99.90
23738;DHT22;12049;51.068;3.688;2022-10-16T03:28:10;14.80;99.90
23738;DHT22;12049;51.068;3.688;2022-10-16T03:30:36;14.70;99.90
23738;DHT22;12049;51.068;3.688;2022-10-16T03:33:02;14.80;99.90
23738;DHT22;12049;51.068;3.688;2022-10-16T03:35:27;14.80;99.90
23738;DHT22;12049;51.068;3.688;2022-10-16T03:37:53;14.80;99.90
23738;DHT22;12049;51.068;3.688;2022-10-16T03:40:18;14.80;99.90
23738;DHT22;12049;51.068;3.688;2022-10-16T03:42:44;14.70;99.90
23738;DHT22;12049;51.068;3.688;2022-10-16T03:45:10;14.60;99.90
23738;DHT22;12049;51.068;3.688;2022-10-16T03:47:36;14.70;99.90
23738;DHT22;12049;51.068;3.688;2022-10-16T03:50:02;14.70;99.90
23738;DHT22;12049;51.068;3.688;2022-10-16T03:52:28;14.70;99.90
23738;DHT22;12049;51.068;3.688;2022-10-16T03:54:53;14.70;99.90
23738;DHT22;12049;51.068;3.688;2022-10-16T03:57:19;14.60;99.90
23738;DHT22;12049;51.068;3.688;2022-10-16T03:59:45;14.60;99.90
23738;DHT22;12049;51.068;3.688;2022-10-16T04:02:11;14.60;99.90
23738;DHT22;12049;51.068;3.688;2022-10-16T04:04:36;14.50;99.90
23738;DHT22;12049;51.068;3.688;2022-10-16T04:07:02;14.60;99.90
23738;DHT22;12049;51.068;3.688;2022-10-16T04:09:30;14.70;99.90
23738;DHT22;12049;51.068;3.688;2022-10-16T04:11:56;14.60;99.90
23738;DHT22;12049;51.068;3.688;2022-10-16T04:14:21;14.60;99.90
23738;DHT22;12049;51.068;3.688;2022-10-16T04:16:47;14.60;99.90
23738;DHT22;12049;51.068;3.688;2022-10-16T04:19:12;14.50;99.90
23738;DHT22;12049;51.068;3.688;2022-10-16T04:21:38;14.40;99.90
23738;DHT22;12049;51.068;3.688;2022-10-16T04:24:04;14.40;99.90
23738;DHT22;12049;51.068;3.688;2022-10-16T04:26:29;14.40;99.90
23738;DHT22;12049;51.068;3.688;2022-10-16T04:28:55;14.40;99.90
23738;DHT22;12049;51.068;3.688;2022-10-16T04:31:20;14.60;99.90
23738;DHT22;12049;51.068;3.688;2022-10-16T04:33:46;14.60;99.90
23738;DHT22;12049;51.068;3.688;2022-10-16T04:36:12;14.60;99.90
23738;DHT22;12049;51.068;3.688;2022-10-16T04:38:37;14.60;99.90
23738;DHT22;12049;51.068;3.688;2022-10-16T04:41:05;14.50;99.90
23738;DHT22;12049;51.068;3.688;2022-10-16T04:43:31;14.40;99.90
23738;DHT22;12049;51.068;3.688;2022-10-16T04:45:59;14.40;99.90
23738;DHT22;12049;51.068;3.688;2022-10-16T04:48:25;14.50;99.90
23738;DHT22;12049;51.068;3.688;2022-10-16T04:50:51;14.60;99.90
23738;DHT22;12049;51.068;3.688;2022-10-16T04:53:16;14.50;99.90
23738;DHT22;12049;51.068;3.688;2022-10-16T04:55:42;14.40;99.90
23738;DHT22;12049;51.068;3.688;2022-10-16T04:58:09;14.40;99.90
23738;DHT22;12049;51.068;3.688;2022-10-16T05:00:34;14.40;99.90
23738;DHT22;12049;51.068;3.688;2022-10-16T05:03:00;14.40;99.90
23738;DHT22;12049;51.068;3.688;2022-10-16T05:05:26;14.40;99.90
23738;DHT22;12049;51.068;3.688;2022-10-16T05:07:51;14.40;99.90
23738;DHT22;12049;51.068;3.688;2022-10-16T05:10:17;14.40;99.90
23738;DHT22;12049;51.068;3.688;2022-10-16T05:12:43;14.40;99.90
23738;DHT22;12049;51.068;3.688;2022-10-16T05:15:08;14.50;99.90
23738;DHT22;12049;51.068;3.688;2022-10-16T05:17:34;14.50;99.90
23738;DHT22;12049;51.068;3.688;2022-10-16T05:19:59;14.60;99.90
23738;DHT22;12049;51.068;3.688;2022-10-16T05:22:25;14.60;99.90
23738;DHT22;12049;51.068;3.688;2022-10-16T05:24:50;14.60;99.90
23738;DHT22;12049;51.068;3.688;2022-10-16T05:27:16;14.60;99.90
23738;DHT22;12049;51.068;3.688;2022-10-16T05:29:47;14.70;99.90
23738;DHT22;12049;51.068;3.688;2022-10-16T05:32:13;14.70;99.90
23738;DHT22;12049;51.068;3.688;2022-10-16T05:34:39;14.80;99.90
23738;DHT22;12049;51.068;3.688;2022-10-16T05:37:05;14.80;99.90
23738;DHT22;12049;51.068;3.688;2022-10-16T05:39:30;14.80;99.90
23738;DHT22;12049;51.068;3.688;2022-10-16T05:41:56;14.90;99.90
23738;DHT22;12049;51.068;3.688;2022-10-16T05:44:21;14.90;99.90
23738;DHT22;12049;51.068;3.688;2022-10-16T05:46:47;14.90;99.90
23738;DHT22;12049;51.068;3.688;2022-10-16T05:49:12;14.90;99.90
23738;DHT22;12049;51.068;3.688;2022-10-16T05:51:38;15.00;99.90
23738;DHT22;12049;51.068;3.688;2022-10-16T05:54:03;14.90;99.90
23738;DHT22;12049;51.068;3.688;2022-10-16T05:56:29;14.90;99.90
23738;DHT22;12049;51.068;3.688;2022-10-16T05:58:54;14.80;99.90
23738;DHT22;12049;51.068;3.688;2022-10-16T06:01:20;14.70;99.90
23738;DHT22;12049;51.068;3.688;2022-10-16T06:03:50;14.70;99.90
23738;DHT22;12049;51.068;3.688;2022-10-16T06:06:16;14.60;99.90
23738;DHT22;12049;51.068;3.688;2022-10-16T06:08:42;14.70;99.90
23738;DHT22;12049;51.068;3.688;2022-10-16T06:11:10;14.60;99.90
23738;DHT22;12049;51.068;3.688;2022-10-16T06:13:36;14.50;99.90
23738;DHT22;12049;51.068;3.688;2022-10-16T06:16:02;14.40;99.90
23738;DHT22;12049;51.068;3.688;2022-10-16T06:18:28;14.50;99.90
23738;DHT22;12049;51.068;3.688;2022-10-16T06:20:54;14.50;99.90
23738;DHT22;12049;51.068;3.688;2022-10-16T06:23:20;14.50;99.90
23738;DHT22;12049;51.068;3.688;2022-10-16T06:25:45;14.50;99.90
23738;DHT22;12049;51.068;3.688;2022-10-16T06:28:11;14.60;99.90
23738;DHT22;12049;51.068;3.688;2022-10-16T06:30:36;14.60;99.90
23738;DHT22;12049;51.068;3.688;2022-10-16T06:33:02;14.70;99.90
23738;DHT22;12049;51.068;3.688;2022-10-16T06:35:27;14.70;99.90
23738;DHT22;12049;51.068;3.688;2022-10-16T06:37:54;14.70;99.90
23738;DHT22;12049;51.068;3.688;2022-10-16T06:40:20;14.70;99.90
23738;DHT22;12049;51.068;3.688;2022-10-16T06:42:45;14.70;99.90
23738;DHT22;12049;51.068;3.688;2022-10-16T06:45:11;14.80;99.90
23738;DHT22;12049;51.068;3.688;2022-10-16T06:47:36;14.80;99.90
23738;DHT22;12049;51.068;3.688;2022-10-16T06:50:02;14.80;99.90
23738;DHT22;12049;51.068;3.688;2022-10-16T06:52:28;14.80;99.90
23738;DHT22;12049;51.068;3.688;2022-10-16T06:54:54;14.90;99.90
23738;DHT22;12049;51.068;3.688;2022-10-16T06:57:19;14.90;99.90
23738;DHT22;12049;51.068;3.688;2022-10-16T06:59:45;15.00;99.90
23738;DHT22;12049;51.068;3.688;2022-10-16T07:02:10;15.00;99.90
23738;DHT22;12049;51.068;3.688;2022-10-16T07:04:36;15.20;99.90
23738;DHT22;12049;51.068;3.688;2022-10-16T07:07:02;15.40;99.90
23738;DHT22;12049;51.068;3.688;2022-10-16T07:09:27;15.50;99.90
23738;DHT22;12049;51.068;3.688;2022-10-16T07:11:53;15.70;99.90
23738;DHT22;12049;51.068;3.688;2022-10-16T07:14:19;16.00;99.90
23738;DHT22;12049;51.068;3.688;2022-10-16T07:16:46;16.20;99.90
23738;DHT22;12049;51.068;3.688;2022-10-16T07:19:12;16.30;99.90
23738;DHT22;12049;51.068;3.688;2022-10-16T07:21:39;16.30;99.90
23738;DHT22;12049;51.068;3.688;2022-10-16T07:24:05;16.60;99.90
23738;DHT22;12049;51.068;3.688;2022-10-16T07:26:33;17.10;99.90
23738;DHT22;12049;51.068;3.688;2022-10-16T07:28:59;17.50;99.90
23738;DHT22;12049;51.068;3.688;2022-10-16T07:31:26;17.80;99.90
23738;DHT22;12049;51.068;3.688;2022-10-16T07:33:52;17.80;99.90
23738;DHT22;12049;51.068;3.688;2022-10-16T07:36:18;17.80;99.90
23738;DHT22;12049;51.068;3.688;2022-10-16T07:38:44;18.00;99.90
23738;DHT22;12049;51.068;3.688;2022-10-16T07:41:11;18.70;99.90
23738;DHT22;12049;51.068;3.688;2022-10-16T07:43:40;19.40;99.90
23738;DHT22;12049;51.068;3.688;2022-10-16T07:46:13;20.20;99.90
23738;DHT22;12049;51.068;3.688;2022-10-16T07:48:45;20.90;99.90
23738;DHT22;12049;51.068;3.688;2022-10-16T07:51:16;20.80;99.90
23738;DHT22;12049;51.068;3.688;2022-10-16T07:53:42;20.20;99.90
23738;DHT22;12049;51.068;3.688;2022-10-16T07:56:10;19.50;99.90
23738;DHT22;12049;51.068;3.688;2022-10-16T07:58:40;19.10;99.90
23738;DHT22;12049;51.068;3.688;2022-10-16T08:01:06;18.70;99.90
23738;DHT22;12049;51.068;3.688;2022-10-16T08:03:32;18.50;99.90
23738;DHT22;12049;51.068;3.688;2022-10-16T08:05:58;18.50;99.90
23738;DHT22;12049;51.068;3.688;2022-10-16T08:08:24;18.60;99.90
23738;DHT22;12049;51.068;3.688;2022-10-16T08:13:24;19.00;99.90
23738;DHT22;12049;51.068;3.688;2022-10-16T08:15:50;18.80;99.90
23738;DHT22;12049;51.068;3.688;2022-10-16T08:18:15;18.60;99.90
23738;DHT22;12049;51.068;3.688;2022-10-16T08:20:42;18.50;99.90
23738;DHT22;12049;51.068;3.688;2022-10-16T08:23:09;18.30;99.90
23738;DHT22;12049;51.068;3.688;2022-10-16T08:25:35;18.00;99.90
23738;DHT22;12049;51.068;3.688;2022-10-16T08:28:04;17.90;99.90
23738;DHT22;12049;51.068;3.688;2022-10-16T08:30:30;17.90;99.90
23738;DHT22;12049;51.068;3.688;2022-10-16T08:32:56;17.80;99.90
23738;DHT22;12049;51.068;3.688;2022-10-16T08:35:23;17.80;99.90
23738;DHT22;12049;51.068;3.688;2022-10-16T08:37:48;17.80;99.90
23738;DHT22;12049;51.068;3.688;2022-10-16T08:40:17;17.80;99.90
23738;DHT22;12049;51.068;3.688;2022-10-16T08:48:00;18.20;99.90
23738;DHT22;12049;51.068;3.688;2022-10-16T08:50:30;18.30;99.90
23738;DHT22;12049;51.068;3.688;2022-10-16T08:52:56;18.60;99.90
23738;DHT22;12049;51.068;3.688;2022-10-16T08:57:50;19.20;99.90
23738;DHT22;12049;51.068;3.688;2022-10-16T09:00:16;19.10;99.90
23738;DHT22;12049;51.068;3.688;2022-10-16T09:02:47;19.20;99.90
23738;DHT22;12049;51.068;3.688;2022-10-16T09:07:45;19.40;99.90
23738;DHT22;12049;51.068;3.688;2022-10-16T09:10:17;19.70;99.90
23738;DHT22;12049;51.068;3.688;2022-10-16T09:15:21;21.10;99.90
23738;DHT22;12049;51.068;3.688;2022-10-16T09:17:54;21.90;99.90
23738;DHT22;12049;51.068;3.688;2022-10-16T09:20:29;22.40;99.90
23738;DHT22;12049;51.068;3.688;2022-10-16T09:23:18;22.80;99.90
23738;DHT22;12049;51.068;3.688;2022-10-16T09:25:43;23.20;99.90
23738;DHT22;12049;51.068;3.688;2022-10-16T09:28:08;24.40;99.90
23738;DHT22;12049;51.068;3.688;2022-10-16T09:30:34;24.90;99.90
23738;DHT22;12049;51.068;3.688;2022-10-16T09:33:00;25.40;99.90
23738;DHT22;12049;51.068;3.688;2022-10-16T09:35:27;25.70;99.90
23738;DHT22;12049;51.068;3.688;2022-10-16T09:37:56;26.20;99.90
23738;DHT22;12049;51.068;3.688;2022-10-16T09:40:32;26.20;99.90
23738;DHT22;12049;51.068;3.688;2022-10-16T09:45:52;26.30;99.90
23738;DHT22;12049;51.068;3.688;2022-10-16T09:48:18;27.20;99.90
23738;DHT22;12049;51.068;3.688;2022-10-16T09:50:54;28.40;99.90
23738;DHT22;12049;51.068;3.688;2022-10-16T09:53:20;29.00;99.90
23738;DHT22;12049;51.068;3.688;2022-10-16T09:55:54;29.80;99.90
23738;DHT22;12049;51.068;3.688;2022-10-16T09:58:22;30.40;99.90
23738;DHT22;12049;51.068;3.688;2022-10-16T10:00:52;30.80;99.90
23738;DHT22;12049;51.068;3.688;2022-10-16T10:03:51;31.00;99.90
23738;DHT22;12049;51.068;3.688;2022-10-16T10:06:17;31.00;99.90
23738;DHT22;12049;51.068;3.688;2022-10-16T10:08:56;30.70;99.90
23738;DHT22;12049;51.068;3.688;2022-10-16T10:14:23;30.40;99.90
23738;DHT22;12049;51.068;3.688;2022-10-16T10:16:50;29.60;99.90
23738;DHT22;12049;51.068;3.688;2022-10-16T10:19:19;29.10;99.90
23738;DHT22;12049;51.068;3.688;2022-10-16T10:21:45;29.10;99.90
23738;DHT22;12049;51.068;3.688;2022-10-16T10:24:11;28.70;99.90
23738;DHT22;12049;51.068;3.688;2022-10-16T10:26:37;28.30;99.90
23738;DHT22;12049;51.068;3.688;2022-10-16T10:29:10;27.80;99.90
23738;DHT22;12049;51.068;3.688;2022-10-16T10:31:41;27.70;99.90
23738;DHT22;12049;51.068;3.688;2022-10-16T10:36:41;26.50;99.90
23738;DHT22;12049;51.068;3.688;2022-10-16T10:46:56;26.20;99.90
23738;DHT22;12049;51.068;3.688;2022-10-16T10:49:38;25.60;99.90
23738;DHT22;12049;51.068;3.688;2022-10-16T10:54:41;24.80;99.90
23738;DHT22;12049;51.068;3.688;2022-10-16T11:02:22;23.60;99.90
23738;DHT22;12049;51.068;3.688;2022-10-16T11:04:58;23.90;99.90
23738;DHT22;12049;51.068;3.688;2022-10-16T11:07:47;23.70;99.90
23738;DHT22;12049;51.068;3.688;2022-10-16T11:10:20;23.30;99.90
23738;DHT22;12049;51.068;3.688;2022-10-16T11:12:48;22.90;99.90
23738;DHT22;12049;51.068;3.688;2022-10-16T11:15:25;22.60;99.90
23738;DHT22;12049;51.068;3.688;2022-10-16T11:18:06;22.40;99.90
23738;DHT22;12049;51.068;3.688;2022-10-16T11:20:34;22.20;99.90
23738;DHT22;12049;51.068;3.688;2022-10-16T11:23:14;22.10;99.90
23738;DHT22;12049;51.068;3.688;2022-10-16T11:25:41;22.00;99.90
23738;DHT22;12049;51.068;3.688;2022-10-16T11:28:11;22.40;99.90
23738;DHT22;12049;51.068;3.688;2022-10-16T11:30:46;23.30;99.90
23738;DHT22;12049;51.068;3.688;2022-10-16T11:33:23;24.40;99.90
23738;DHT22;12049;51.068;3.688;2022-10-16T11:35:55;24.70;99.90
23738;DHT22;12049;51.068;3.688;2022-10-16T11:41:12;23.60;99.90
23738;DHT22;12049;51.068;3.688;2022-10-16T11:43:41;23.00;99.90
23738;DHT22;12049;51.068;3.688;2022-10-16T11:46:10;22.70;99.90
23738;DHT22;12049;51.068;3.688;2022-10-16T11:48:48;22.40;99.90
23738;DHT22;12049;51.068;3.688;2022-10-16T11:51:19;22.10;99.90
23738;DHT22;12049;51.068;3.688;2022-10-16T11:54:04;21.90;99.90
23738;DHT22;12049;51.068;3.688;2022-10-16T11:56:32;21.90;99.90
23738;DHT22;12049;51.068;3.688;2022-10-16T11:59:04;22.40;99.90
23738;DHT22;12049;51.068;3.688;2022-10-16T12:01:39;23.10;99.90
23738;DHT22;12049;51.068;3.688;2022-10-16T12:06:41;24.80;99.90
23738;DHT22;12049;51.068;3.688;2022-10-16T12:09:26;25.30;99.90
23738;DHT22;12049;51.068;3.688;2022-10-16T12:11:53;25.60;99.90
23738;DHT22;12049;51.068;3.688;2022-10-16T12:14:20;25.80;99.90
23738;DHT22;12049;51.068;3.688;2022-10-16T12:17:23;25.80;99.90
23738;DHT22;12049;51.068;3.688;2022-10-16T12:19:58;25.90;99.90
23738;DHT22;12049;51.068;3.688;2022-10-16T12:22:24;25.60;99.90
23738;DHT22;12049;51.068;3.688;2022-10-16T12:24:52;25.40;99.90
23738;DHT22;12049;51.068;3.688;2022-10-16T12:27:28;25.20;99.90
23738;DHT22;12049;51.068;3.688;2022-10-16T12:30:00;25.30;99.90
23738;DHT22;12049;51.068;3.688;2022-10-16T12:34:55;25.40;99.90
23738;DHT22;12049;51.068;3.688;2022-10-16T12:37:21;25.50;99.90
23738;DHT22;12049;51.068;3.688;2022-10-16T12:39:48;25.50;99.90
23738;DHT22;12049;51.068;3.688;2022-10-16T12:42:22;25.10;99.90
23738;DHT22;12049;51.068;3.688;2022-10-16T12:44:47;24.90;99.90
23738;DHT22;12049;51.068;3.688;2022-10-16T12:47:23;24.80;99.90
23738;DHT22;12049;51.068;3.688;2022-10-16T12:49:51;24.70;99.90
23738;DHT22;12049;51.068;3.688;2022-10-16T12:54:57;24.50;99.90
23738;DHT22;12049;51.068;3.688;2022-10-16T12:57:39;24.10;99.90
23738;DHT22;12049;51.068;3.688;2022-10-16T13:05:20;23.10;99.90
23738;DHT22;12049;51.068;3.688;2022-10-16T13:10:56;23.50;99.90
23738;DHT22;12049;51.068;3.688;2022-10-16T13:13:38;23.80;99.90
23738;DHT22;12049;51.068;3.688;2022-10-16T13:23:59;23.20;99.90
23738;DHT22;12049;51.068;3.688;2022-10-16T13:28:52;22.60;99.90
23738;DHT22;12049;51.068;3.688;2022-10-16T13:31:19;22.30;99.90
23738;DHT22;12049;51.068;3.688;2022-10-16T13:33:47;22.10;99.90
23738;DHT22;12049;51.068;3.688;2022-10-16T13:36:18;22.00;99.90
23738;DHT22;12049;51.068;3.688;2022-10-16T13:38:47;21.90;99.90
23738;DHT22;12049;51.068;3.688;2022-10-16T13:41:14;21.80;99.90
23738;DHT22;12049;51.068;3.688;2022-10-16T13:43:50;21.80;99.90
23738;DHT22;12049;51.068;3.688;2022-10-16T13:46:17;22.00;99.90
23738;DHT22;12049;51.068;3.688;2022-10-16T13:48:43;21.90;99.90
23738;DHT22;12049;51.068;3.688;2022-10-16T13:51:13;21.80;99.90
23738;DHT22;12049;51.068;3.688;2022-10-16T13:53:38;21.70;99.90
23738;DHT22;12049;51.068;3.688;2022-10-16T13:56:05;21.60;99.90
23738;DHT22;12049;51.068;3.688;2022-10-16T13:58:31;21.60;99.90
23738;DHT22;12049;51.068;3.688;2022-10-16T14:01:15;21.50;99.90
23738;DHT22;12049;51.068;3.688;2022-10-16T14:03:41;21.40;99.90
23738;DHT22;12049;51.068;3.688;2022-10-16T14:06:11;21.30;99.90
23738;DHT22;12049;51.068;3.688;2022-10-16T14:08:40;21.20;99.90
23738;DHT22;12049;51.068;3.688;2022-10-16T14:11:07;21.20;99.90
23738;DHT22;12049;51.068;3.688;2022-10-16T14:13:37;21.10;99.90
23738;DHT22;12049;51.068;3.688;2022-10-16T14:16:25;21.00;99.90
23738;DHT22;12049;51.068;3.688;2022-10-16T14:18:52;20.80;99.90
23738;DHT22;12049;51.068;3.688;2022-10-16T14:21:20;20.70;99.90
23738;DHT22;12049;51.068;3.688;2022-10-16T14:23:46;20.70;99.90
23738;DHT22;12049;51.068;3.688;2022-10-16T14:26:12;20.70;99.90
23738;DHT22;12049;51.068;3.688;2022-10-16T14:28:39;20.70;99.90
23738;DHT22;12049;51.068;3.688;2022-10-16T14:33:49;20.70;99.90
23738;DHT22;12049;51.068;3.688;2022-10-16T14:36:15;20.70;99.90
23738;DHT22;12049;51.068;3.688;2022-10-16T14:38:49;20.70;99.90
23738;DHT22;12049;51.068;3.688;2022-10-16T14:41:19;20.50;99.90
23738;DHT22;12049;51.068;3.688;2022-10-16T14:43:49;20.40;99.90
23738;DHT22;12049;51.068;3.688;2022-10-16T14:46:16;20.30;99.90
23738;DHT22;12049;51.068;3.688;2022-10-16T14:48:43;20.20;99.90
23738;DHT22;12049;51.068;3.688;2022-10-16T14:51:13;20.30;99.90
23738;DHT22;12049;51.068;3.688;2022-10-16T14:53:38;20.30;99.90
23738;DHT22;12049;51.068;3.688;2022-10-16T14:56:07;20.20;99.90
23738;DHT22;12049;51.068;3.688;2022-10-16T14:58:34;20.20;99.90
23738;DHT22;12049;51.068;3.688;2022-10-16T15:01:00;20.20;99.90
23738;DHT22;12049;51.068;3.688;2022-10-16T15:03:25;20.20;99.90
23738;DHT22;12049;51.068;3.688;2022-10-16T15:05:51;20.00;99.90
23738;DHT22;12049;51.068;3.688;2022-10-16T15:08:16;20.00;99.90
23738;DHT22;12049;51.068;3.688;2022-10-16T15:10:43;19.90;99.90
23738;DHT22;12049;51.068;3.688;2022-10-16T15:13:12;19.90;99.90
23738;DHT22;12049;51.068;3.688;2022-10-16T15:15:43;19.90;99.90
23738;DHT22;12049;51.068;3.688;2022-10-16T15:18:09;19.90;99.90
23738;DHT22;12049;51.068;3.688;2022-10-16T15:20:38;19.80;99.90
23738;DHT22;12049;51.068;3.688;2022-10-16T15:23:05;19.80;99.90
23738;DHT22;12049;51.068;3.688;2022-10-16T15:25:33;19.80;99.90
23738;DHT22;12049;51.068;3.688;2022-10-16T15:28:00;19.70;99.90
23738;DHT22;12049;51.068;3.688;2022-10-16T15:30:25;19.60;99.90
23738;DHT22;12049;51.068;3.688;2022-10-16T15:32:51;19.60;99.90
23738;DHT22;12049;51.068;3.688;2022-10-16T15:35:17;19.60;99.90
23738;DHT22;12049;51.068;3.688;2022-10-16T15:37:42;19.50;99.90
23738;DHT22;12049;51.068;3.688;2022-10-16T15:40:08;19.50;99.90
23738;DHT22;12049;51.068;3.688;2022-10-16T15:42:34;19.50;99.90
23738;DHT22;12049;51.068;3.688;2022-10-16T15:44:59;19.50;99.90
23738;DHT22;12049;51.068;3.688;2022-10-16T15:47:25;19.50;99.90
23738;DHT22;12049;51.068;3.688;2022-10-16T15:49:51;19.50;99.90
23738;DHT22;12049;51.068;3.688;2022-10-16T15:52:16;19.50;99.90
23738;DHT22;12049;51.068;3.688;2022-10-16T15:54:42;19.50;99.90
23738;DHT22;12049;51.068;3.688;2022-10-16T15:57:08;19.50;99.90
23738;DHT22;12049;51.068;3.688;2022-10-16T15:59:34;19.40;99.90
23738;DHT22;12049;51.068;3.688;2022-10-16T16:01:59;19.30;99.90
23738;DHT22;12049;51.068;3.688;2022-10-16T16:04:25;19.30;99.90
23738;DHT22;12049;51.068;3.688;2022-10-16T16:06:51;19.30;99.90
23738;DHT22;12049;51.068;3.688;2022-10-16T16:09:16;19.40;99.90
23738;DHT22;12049;51.068;3.688;2022-10-16T16:11:42;19.40;99.90
23738;DHT22;12049;51.068;3.688;2022-10-16T16:14:08;19.40;99.90
23738;DHT22;12049;51.068;3.688;2022-10-16T16:16:36;19.30;99.90
23738;DHT22;12049;51.068;3.688;2022-10-16T16:19:06;19.30;99.90
23738;DHT22;12049;51.068;3.688;2022-10-16T16:21:32;19.30;99.90
23738;DHT22;12049;51.068;3.688;2022-10-16T16:23:58;19.30;99.90
23738;DHT22;12049;51.068;3.688;2022-10-16T16:26:24;19.40;99.90
23738;DHT22;12049;51.068;3.688;2022-10-16T16:28:54;19.30;99.90
23738;DHT22;12049;51.068;3.688;2022-10-16T16:31:23;19.40;99.90
23738;DHT22;12049;51.068;3.688;2022-10-16T16:33:49;19.30;99.90
23738;DHT22;12049;51.068;3.688;2022-10-16T16:36:16;19.30;99.90
23738;DHT22;12049;51.068;3.688;2022-10-16T16:38:43;19.20;99.90
23738;DHT22;12049;51.068;3.688;2022-10-16T16:43:40;19.10;99.90
23738;DHT22;12049;51.068;3.688;2022-10-16T16:46:06;19.10;99.90
23738;DHT22;12049;51.068;3.688;2022-10-16T16:48:32;19.10;99.90
23738;DHT22;12049;51.068;3.688;2022-10-16T16:51:04;19.10;99.90
23738;DHT22;12049;51.068;3.688;2022-10-16T16:53:30;19.10;99.90
23738;DHT22;12049;51.068;3.688;2022-10-16T16:56:00;19.10;99.90
23738;DHT22;12049;51.068;3.688;2022-10-16T16:58:25;19.00;99.90
23738;DHT22;12049;51.068;3.688;2022-10-16T17:00:51;19.00;99.90
23738;DHT22;12049;51.068;3.688;2022-10-16T17:03:16;19.10;99.90
23738;DHT22;12049;51.068;3.688;2022-10-16T17:05:42;19.00;99.90
23738;DHT22;12049;51.068;3.688;2022-10-16T17:08:07;19.00;99.90